createdAt,value
2019-03-30T00:02:28.328Z,102.02
2019-03-30T00:04:56.787Z,98.33
2019-03-30T00:07:25.228Z,86.10
2019-03-30T00:09:53.659Z,95.80
2019-03-30T00:12:24.236Z,92.53
2019-03-30T00:14:52.667Z,94.75
2019-03-30T00:17:21.093Z,92.20
2019-03-30T00:19:49.601Z,98.60
2019-03-30T00:22:18.047Z,119.25
2019-03-30T00:24:47.501Z,106.65
2019-03-30T00:27:15.954Z,109.27
2019-03-30T00:29:44.393Z,104.15
2019-03-30T00:32:14.480Z,113.05
2019-03-30T00:34:42.947Z,109.42
2019-03-30T00:37:13.030Z,111.05
2019-03-30T00:39:41.679Z,108.78
2019-03-30T00:42:10.124Z,106.65
2019-03-30T00:44:41.223Z,115.28
2019-03-30T00:47:09.676Z,102.82
2019-03-30T00:49:48.482Z,91.12
2019-03-30T00:52:08.286Z,96.97
2019-03-30T00:54:36.723Z,102.92
2019-03-30T00:57:05.175Z,102.72
2019-03-30T00:59:33.611Z,102.38
2019-03-30T01:02:02.973Z,102.07
2019-03-30T01:04:31.411Z,100.58
2019-03-30T01:06:59.853Z,98.17
2019-03-30T01:09:28.310Z,98.10
2019-03-30T01:11:56.738Z,93.67
2019-03-30T01:14:25.190Z,89.75
2019-03-30T01:16:53.627Z,95.45
2019-03-30T01:19:22.073Z,95.72
2019-03-30T01:21:50.511Z,67.47
2019-03-30T01:24:18.933Z,50.80
2019-03-30T01:26:49.826Z,44.65
2019-03-30T01:29:20.823Z,47.17
2019-03-30T01:31:49.272Z,52.15
2019-03-30T01:34:19.240Z,57.93
2019-03-30T01:36:47.698Z,57.53
2019-03-30T01:39:16.190Z,85.90
2019-03-30T01:41:44.651Z,84.47
2019-03-30T01:44:13.094Z,90.87
2019-03-30T01:46:41.522Z,93.07
2019-03-30T01:49:09.970Z,78.83
2019-03-30T01:51:38.411Z,95.90
2019-03-30T01:54:06.856Z,96.92
2019-03-30T01:56:35.278Z,91.55
2019-03-30T01:59:03.713Z,87.33
2019-03-30T02:01:32.172Z,100.60
2019-03-30T02:04:00.593Z,93.42
2019-03-30T02:06:29.046Z,109.63
2019-03-30T02:08:57.488Z,103.47
2019-03-30T02:11:25.981Z,110.78
2019-03-30T02:13:54.429Z,112.05
2019-03-30T02:16:22.879Z,111.35
2019-03-30T02:18:51.388Z,131.87
2019-03-30T02:21:19.887Z,134.25
2019-03-30T02:23:48.331Z,125.82
2019-03-30T02:26:16.789Z,139.07
2019-03-30T02:28:45.307Z,152.38
2019-03-30T02:31:13.749Z,139.75
2019-03-30T02:33:42.202Z,147.87
2019-03-30T02:36:10.636Z,114.75
2019-03-30T02:38:39.078Z,129.82
2019-03-30T02:41:07.527Z,133.60
2019-03-30T02:43:37.620Z,155.40
2019-03-30T02:46:06.079Z,158.20
2019-03-30T02:48:34.516Z,147.93
2019-03-30T02:51:02.963Z,149.53
2019-03-30T02:53:31.428Z,132.47
2019-03-30T02:55:59.859Z,122.87
2019-03-30T02:58:28.310Z,123.38
2019-03-30T03:00:56.740Z,150.05
2019-03-30T03:03:25.173Z,127.65
2019-03-30T03:05:53.639Z,120.37
2019-03-30T03:08:22.455Z,105.37
2019-03-30T03:10:51.945Z,114.00
2019-03-30T03:13:20.453Z,111.80
2019-03-30T03:15:48.893Z,129.10
2019-03-30T03:18:17.331Z,135.40
2019-03-30T03:20:45.775Z,130.45
2019-03-30T03:23:14.216Z,148.43
2019-03-30T03:25:42.670Z,137.97
2019-03-30T03:28:11.115Z,141.80
2019-03-30T03:30:40.491Z,150.10
2019-03-30T03:33:09.126Z,115.22
2019-03-30T03:35:37.640Z,114.65
2019-03-30T03:38:06.395Z,135.55
2019-03-30T03:40:34.831Z,116.20
2019-03-30T03:43:03.282Z,124.35
2019-03-30T03:45:31.729Z,108.90
2019-03-30T03:48:00.161Z,116.57
2019-03-30T03:50:46.144Z,117.20
2019-03-30T03:53:16.094Z,112.40
2019-03-30T03:55:45.223Z,136.85
2019-03-30T03:58:15.279Z,149.38
2019-03-30T04:00:44.940Z,125.33
2019-03-30T04:03:16.583Z,125.25
2019-03-30T04:05:46.658Z,112.45
2019-03-30T04:08:16.612Z,108.12
2019-03-30T04:10:47.065Z,117.00
2019-03-30T04:13:15.671Z,122.62
2019-03-30T04:15:44.252Z,126.33
2019-03-30T04:18:13.737Z,125.95
2019-03-30T04:20:42.170Z,127.27
2019-03-30T04:23:10.675Z,111.57
2019-03-30T04:25:39.126Z,123.40
2019-03-30T04:28:07.676Z,138.35
2019-03-30T04:30:36.181Z,134.57
2019-03-30T04:33:04.618Z,136.05
2019-03-30T04:35:33.066Z,127.92
2019-03-30T04:38:01.511Z,143.75
2019-03-30T04:40:29.956Z,127.38
2019-03-30T04:42:58.399Z,119.57
2019-03-30T04:45:26.855Z,120.85
2019-03-30T04:47:55.296Z,148.35
2019-03-30T04:50:23.747Z,125.95
2019-03-30T04:52:52.190Z,142.30
2019-03-30T04:55:20.637Z,149.77
2019-03-30T04:57:49.790Z,155.18
2019-03-30T05:00:18.494Z,138.95
2019-03-30T05:02:46.946Z,139.65
2019-03-30T05:05:15.385Z,138.45
2019-03-30T05:07:43.831Z,164.28
2019-03-30T05:10:12.825Z,159.10
2019-03-30T05:12:41.264Z,146.28
2019-03-30T05:15:09.951Z,132.10
2019-03-30T05:17:47.587Z,138.72
2019-03-30T05:20:08.659Z,133.43
2019-03-30T05:22:37.108Z,121.57
2019-03-30T05:25:06.583Z,142.22
2019-03-30T05:27:35.051Z,124.90
2019-03-30T05:30:04.262Z,149.00
2019-03-30T05:32:32.727Z,141.85
2019-03-30T05:35:01.176Z,140.90
2019-03-30T05:37:30.909Z,149.25
2019-03-30T05:39:59.353Z,137.10
2019-03-30T05:42:27.802Z,141.85
2019-03-30T05:44:57.816Z,142.90
2019-03-30T05:47:26.419Z,131.07
2019-03-30T05:49:54.871Z,146.30
2019-03-30T05:52:26.775Z,139.43
2019-03-30T05:54:55.554Z,129.42
2019-03-30T05:57:23.993Z,123.97
2019-03-30T05:59:55.578Z,112.25
2019-03-30T06:02:24.149Z,111.30
2019-03-30T06:04:52.584Z,106.80
2019-03-30T06:07:21.022Z,107.17
2019-03-30T06:09:49.453Z,83.17
2019-03-30T06:12:17.898Z,68.42
2019-03-30T06:14:46.327Z,65.45
2019-03-30T06:17:14.775Z,62.40
2019-03-30T06:19:44.035Z,61.70
2019-03-30T06:22:12.470Z,57.03
2019-03-30T06:24:40.923Z,57.78
2019-03-30T06:27:09.349Z,55.78
2019-03-30T06:29:38.671Z,58.87
2019-03-30T06:32:07.107Z,58.17
2019-03-30T06:34:35.550Z,53.17
2019-03-30T06:37:03.991Z,54.35
2019-03-30T06:39:36.813Z,56.58
2019-03-30T06:42:03.581Z,51.33
2019-03-30T06:44:32.027Z,51.30
2019-03-30T06:47:00.483Z,45.00
2019-03-30T06:49:30.558Z,45.88
2019-03-30T06:52:00.740Z,46.05
2019-03-30T06:54:29.185Z,45.98
2019-03-30T06:56:57.627Z,44.08
2019-03-30T06:59:26.065Z,44.80
2019-03-30T07:01:54.493Z,44.20
2019-03-30T07:04:22.941Z,40.33
2019-03-30T07:06:52.346Z,38.50
2019-03-30T07:09:22.640Z,40.20
2019-03-30T07:11:54.488Z,41.75
2019-03-30T07:14:25.829Z,36.48
2019-03-30T07:16:55.626Z,42.13
2019-03-30T07:19:27.059Z,39.23
2019-03-30T07:21:56.019Z,39.40
2019-03-30T07:24:24.467Z,42.70
2019-03-30T07:26:52.931Z,45.30
2019-03-30T07:29:21.382Z,39.92
2019-03-30T07:31:49.819Z,39.50
2019-03-30T07:34:18.273Z,40.95
2019-03-30T07:36:46.715Z,39.42
2019-03-30T07:39:15.147Z,39.80
2019-03-30T07:41:43.602Z,38.28
2019-03-30T07:44:12.055Z,41.70
2019-03-30T07:46:40.485Z,36.23
2019-03-30T07:49:08.949Z,31.55
2019-03-30T07:51:40.086Z,31.93
2019-03-30T07:54:10.228Z,32.63
2019-03-30T07:56:38.688Z,33.88
2019-03-30T07:59:07.128Z,30.35
2019-03-30T08:01:37.474Z,32.83
2019-03-30T08:04:05.927Z,35.08
2019-03-30T08:06:34.453Z,31.87
2019-03-30T08:09:02.896Z,27.93
2019-03-30T08:11:31.351Z,31.05
2019-03-30T08:13:59.785Z,31.30
2019-03-30T08:16:28.229Z,34.63
2019-03-30T08:18:57.347Z,24.98
2019-03-30T08:21:25.786Z,29.77
2019-03-30T08:23:54.238Z,27.77
2019-03-30T08:26:25.134Z,31.15
2019-03-30T08:28:53.931Z,26.48
2019-03-30T08:31:22.716Z,28.85
2019-03-30T08:33:51.159Z,29.98
2019-03-30T08:36:22.217Z,29.48
2019-03-30T08:38:50.678Z,31.27
2019-03-30T08:41:19.220Z,27.82
2019-03-30T08:43:47.743Z,25.52
2019-03-30T08:46:16.208Z,27.27
2019-03-30T08:48:46.978Z,30.82
2019-03-30T08:51:15.453Z,27.70
2019-03-30T08:53:54.073Z,25.23
2019-03-30T08:56:14.146Z,24.70
2019-03-30T08:58:43.865Z,27.07
2019-03-30T09:01:14.881Z,22.70
2019-03-30T09:03:43.325Z,26.62
2019-03-30T09:06:12.798Z,24.72
2019-03-30T09:08:42.357Z,23.73
2019-03-30T09:11:10.808Z,26.42
2019-03-30T09:13:39.255Z,23.60
2019-03-30T09:16:07.703Z,26.10
2019-03-30T09:18:39.492Z,24.55
2019-03-30T09:21:10.158Z,21.70
2019-03-30T09:23:38.677Z,24.80
2019-03-30T09:26:07.114Z,22.52
2019-03-30T09:28:37.187Z,21.62
2019-03-30T09:31:05.650Z,24.20
2019-03-30T09:33:34.096Z,27.70
2019-03-30T09:36:02.538Z,26.30
2019-03-30T09:38:31.002Z,23.12
2019-03-30T09:40:59.433Z,21.10
2019-03-30T09:43:27.886Z,24.65
2019-03-30T09:45:56.341Z,19.23
2019-03-30T09:48:24.792Z,21.20
2019-03-30T09:50:53.221Z,22.90
2019-03-30T09:53:21.683Z,22.13
2019-03-30T09:55:50.127Z,22.05
2019-03-30T09:58:18.571Z,22.10
2019-03-30T10:00:47.023Z,22.70
2019-03-30T10:03:15.473Z,26.95
2019-03-30T10:05:43.918Z,19.80
2019-03-30T10:08:12.354Z,22.75
2019-03-30T10:10:40.813Z,39.15
2019-03-30T10:13:09.250Z,21.82
2019-03-30T10:15:37.681Z,23.47
2019-03-30T10:18:06.207Z,20.57
2019-03-30T10:20:36.187Z,21.17
2019-03-30T10:23:05.457Z,22.20
2019-03-30T10:25:33.903Z,22.15
2019-03-30T10:28:04.312Z,23.47
2019-03-30T10:30:32.535Z,23.62
2019-03-30T10:33:00.971Z,21.80
2019-03-30T10:35:29.427Z,21.35
2019-03-30T10:37:57.887Z,18.92
2019-03-30T10:40:26.418Z,21.45
2019-03-30T10:42:54.930Z,19.87
2019-03-30T10:45:23.430Z,20.77
2019-03-30T10:47:52.662Z,21.87
2019-03-30T10:50:21.114Z,18.20
2019-03-30T10:52:52.113Z,27.85
2019-03-30T10:55:20.559Z,18.67
2019-03-30T10:57:51.351Z,18.77
2019-03-30T11:00:39.361Z,18.48
2019-03-30T11:03:07.811Z,17.70
2019-03-30T11:05:36.243Z,21.55
2019-03-30T11:08:04.779Z,18.50
2019-03-30T11:10:33.221Z,17.20
2019-03-30T11:13:01.670Z,17.60
2019-03-30T11:15:30.126Z,20.20
2019-03-30T11:17:58.557Z,25.60
2019-03-30T11:20:27.009Z,22.32
2019-03-30T11:22:58.555Z,19.37
2019-03-30T11:25:27.035Z,22.22
2019-03-30T11:27:55.577Z,20.00
2019-03-30T11:30:24.015Z,41.53
2019-03-30T11:32:52.478Z,20.27
2019-03-30T11:35:20.919Z,16.30
2019-03-30T11:37:49.360Z,19.75
2019-03-30T11:40:17.810Z,18.48
2019-03-30T11:42:46.248Z,22.80
2019-03-30T11:45:14.774Z,20.23
2019-03-30T11:47:44.754Z,19.82
2019-03-30T11:50:13.343Z,19.57
2019-03-30T11:52:41.792Z,23.25
2019-03-30T11:55:21.101Z,17.92
2019-03-30T11:57:40.758Z,21.57
2019-03-30T12:00:09.539Z,22.25
2019-03-30T12:02:37.995Z,23.02
2019-03-30T12:05:07.480Z,22.82
2019-03-30T12:07:37.180Z,17.25
2019-03-30T12:10:06.476Z,19.05
2019-03-30T12:12:37.286Z,18.92
2019-03-30T12:15:07.479Z,18.20
2019-03-30T12:17:35.943Z,16.25
2019-03-30T12:20:06.427Z,20.52
2019-03-30T12:22:37.474Z,14.33
2019-03-30T12:25:06.290Z,15.98
2019-03-30T12:27:34.735Z,17.27
2019-03-30T12:30:03.941Z,14.80
2019-03-30T12:32:32.394Z,16.57
2019-03-30T12:35:00.907Z,15.32
2019-03-30T12:37:29.433Z,17.87
2019-03-30T12:39:59.410Z,21.95
2019-03-30T12:42:27.850Z,17.60
2019-03-30T12:44:57.822Z,17.65
2019-03-30T12:47:26.267Z,20.80
2019-03-30T12:49:54.814Z,14.90
2019-03-30T12:52:26.367Z,16.95
2019-03-30T12:54:53.447Z,12.65
2019-03-30T12:57:21.903Z,12.70
2019-03-30T12:59:50.367Z,12.95
2019-03-30T13:02:19.353Z,9.25
2019-03-30T13:04:48.228Z,17.20
2019-03-30T13:07:16.665Z,11.12
2019-03-30T13:09:47.559Z,11.18
2019-03-30T13:12:15.998Z,15.15
2019-03-30T13:14:44.445Z,11.85
2019-03-30T13:17:12.896Z,10.93
2019-03-30T13:19:41.322Z,14.33
2019-03-30T13:22:09.786Z,14.65
2019-03-30T13:24:38.239Z,17.45
2019-03-30T13:27:06.696Z,20.60
2019-03-30T13:29:35.139Z,19.27
2019-03-30T13:32:03.592Z,22.30
2019-03-30T13:34:32.034Z,20.80
2019-03-30T13:37:02.007Z,25.25
2019-03-30T13:39:32.989Z,20.92
2019-03-30T13:42:01.490Z,22.60
2019-03-30T13:44:29.944Z,20.60
2019-03-30T13:47:01.145Z,20.12
2019-03-30T13:49:31.267Z,18.67
2019-03-30T13:51:59.707Z,23.15
2019-03-30T13:54:30.993Z,24.80
2019-03-30T13:57:02.435Z,16.93
2019-03-30T13:59:30.877Z,19.85
2019-03-30T14:01:59.331Z,22.90
2019-03-30T14:04:27.791Z,20.40
2019-03-30T14:06:57.795Z,26.15
2019-03-30T14:09:26.253Z,28.73
2019-03-30T14:11:56.306Z,31.65
2019-03-30T14:14:26.212Z,35.65
2019-03-30T14:16:58.466Z,38.40
2019-03-30T14:19:30.542Z,44.50
2019-03-30T14:21:58.980Z,40.00
2019-03-30T14:24:28.717Z,40.08
2019-03-30T14:26:57.141Z,46.55
2019-03-30T14:29:25.578Z,43.80
2019-03-30T14:31:54.046Z,44.23
2019-03-30T14:34:22.566Z,43.95
2019-03-30T14:36:51.019Z,37.98
2019-03-30T14:39:19.471Z,38.63
2019-03-30T14:41:47.928Z,36.60
2019-03-30T14:44:16.395Z,41.50
2019-03-30T14:46:44.901Z,42.58
2019-03-30T14:49:13.378Z,48.78
2019-03-30T14:51:41.828Z,45.58
2019-03-30T14:54:10.278Z,54.30
2019-03-30T14:56:45.356Z,49.85
2019-03-30T14:59:10.309Z,53.15
2019-03-30T15:01:39.257Z,56.35
2019-03-30T15:04:07.715Z,43.52
2019-03-30T15:06:36.175Z,55.58
2019-03-30T15:09:06.820Z,52.30
2019-03-30T15:11:37.867Z,64.17
2019-03-30T15:14:05.497Z,63.13
2019-03-30T15:16:33.938Z,69.97
2019-03-30T15:19:02.383Z,69.42
2019-03-30T15:21:30.848Z,74.00
2019-03-30T15:23:59.292Z,63.00
2019-03-30T15:26:27.987Z,74.95
2019-03-30T15:28:56.425Z,73.00
2019-03-30T15:31:24.858Z,70.32
2019-03-30T15:33:53.568Z,68.28
2019-03-30T15:36:22.230Z,75.83
2019-03-30T15:38:51.883Z,75.15
2019-03-30T15:41:20.329Z,68.67
2019-03-30T15:43:51.808Z,69.72
2019-03-30T15:46:18.974Z,78.62
2019-03-30T15:48:47.405Z,63.95
2019-03-30T15:51:15.867Z,63.95
2019-03-30T15:53:44.314Z,58.10
2019-03-30T15:56:12.856Z,71.00
2019-03-30T15:58:41.342Z,74.20
2019-03-30T16:01:09.819Z,70.08
2019-03-30T16:03:40.276Z,73.90
2019-03-30T16:06:08.495Z,70.80
2019-03-30T16:08:40.138Z,66.97
2019-03-30T16:11:08.608Z,83.47
2019-03-30T16:13:38.571Z,67.85
2019-03-30T16:16:07.452Z,71.07
2019-03-30T16:18:35.966Z,75.85
2019-03-30T16:21:04.578Z,71.33
2019-03-30T16:23:33.023Z,73.22
2019-03-30T16:26:01.510Z,75.65
2019-03-30T16:28:30.044Z,75.20
2019-03-30T16:30:58.487Z,66.53
2019-03-30T16:33:26.950Z,80.65
2019-03-30T16:35:55.392Z,68.05
2019-03-30T16:38:23.851Z,64.85
2019-03-30T16:40:52.281Z,65.37
2019-03-30T16:43:20.747Z,63.38
2019-03-30T16:45:49.194Z,64.15
2019-03-30T16:48:17.636Z,64.55
2019-03-30T16:50:46.102Z,66.95
2019-03-30T16:53:14.539Z,63.70
2019-03-30T16:55:43.001Z,61.25
2019-03-30T16:58:11.438Z,57.10
2019-03-30T17:00:55.624Z,63.80
2019-03-30T17:03:11.099Z,71.35
2019-03-30T17:05:42.414Z,65.60
2019-03-30T17:08:11.339Z,67.85
2019-03-30T17:10:40.371Z,70.05
2019-03-30T17:13:09.038Z,71.45
2019-03-30T17:15:37.500Z,55.52
2019-03-30T17:18:05.995Z,65.62
2019-03-30T17:20:34.440Z,58.08
2019-03-30T17:23:02.939Z,61.53
2019-03-30T17:25:31.414Z,61.33
2019-03-30T17:27:59.918Z,59.35
2019-03-30T17:30:30.418Z,63.08
2019-03-30T17:32:58.948Z,60.98
2019-03-30T17:35:27.407Z,65.42
2019-03-30T17:37:55.918Z,64.87
2019-03-30T17:40:24.440Z,65.08
2019-03-30T17:42:52.924Z,78.22
2019-03-30T17:45:21.424Z,93.33
2019-03-30T17:47:49.870Z,91.00
2019-03-30T17:50:18.871Z,93.47
2019-03-30T17:52:47.326Z,88.58
2019-03-30T17:55:15.760Z,95.70
2019-03-30T17:57:44.283Z,88.75
2019-03-30T18:00:15.546Z,89.70
2019-03-30T18:02:43.978Z,87.40
2019-03-30T18:05:12.560Z,80.47
2019-03-30T18:07:41.007Z,89.97
2019-03-30T18:10:10.090Z,87.97
2019-03-30T18:12:38.543Z,89.17
2019-03-30T18:15:08.789Z,89.72
2019-03-30T18:17:37.233Z,80.20
2019-03-30T18:20:06.805Z,90.38
2019-03-30T18:22:36.594Z,86.30
2019-03-30T18:25:06.959Z,84.35
2019-03-30T18:27:35.411Z,76.87
2019-03-30T18:30:05.561Z,78.85
2019-03-30T18:32:34.375Z,81.85
2019-03-30T18:35:06.981Z,81.65
2019-03-30T18:37:36.272Z,82.30
2019-03-30T18:40:06.861Z,87.45
2019-03-30T18:42:35.873Z,85.60
2019-03-30T18:45:07.058Z,78.95
2019-03-30T18:47:35.561Z,88.33
2019-03-30T18:50:06.346Z,82.67
2019-03-30T18:52:36.725Z,81.60
2019-03-30T18:55:07.013Z,79.67
2019-03-30T18:57:35.526Z,87.05
2019-03-30T19:00:06.579Z,89.85
2019-03-30T19:02:35.032Z,84.72
2019-03-30T19:05:04.502Z,87.95
2019-03-30T19:07:34.255Z,83.30
2019-03-30T19:10:03.043Z,87.30
2019-03-30T19:12:31.480Z,88.65
2019-03-30T19:15:00.597Z,80.40
2019-03-30T19:17:29.058Z,79.67
2019-03-30T19:19:59.623Z,82.02
2019-03-30T19:22:28.151Z,77.15
2019-03-30T19:24:56.602Z,81.55
2019-03-30T19:27:25.060Z,77.50
2019-03-30T19:29:53.501Z,81.95
2019-03-30T19:32:22.234Z,84.30
2019-03-30T19:34:52.276Z,93.87
2019-03-30T19:37:20.731Z,102.22
2019-03-30T19:39:49.182Z,107.60
2019-03-30T19:42:17.641Z,103.47
2019-03-30T19:44:46.076Z,97.15
2019-03-30T19:47:14.519Z,104.32
2019-03-30T19:49:44.063Z,102.02
2019-03-30T19:52:12.510Z,107.52
2019-03-30T19:54:40.959Z,103.12
2019-03-30T19:57:09.406Z,105.97
2019-03-30T19:59:37.856Z,109.95
2019-03-30T20:02:06.368Z,108.63
2019-03-30T20:04:34.855Z,105.97
2019-03-30T20:07:03.380Z,104.30
2019-03-30T20:09:31.833Z,119.97
2019-03-30T20:12:00.298Z,115.65
2019-03-30T20:14:28.739Z,116.10
2019-03-30T20:16:57.191Z,116.77
2019-03-30T20:19:25.652Z,108.78
2019-03-30T20:21:57.182Z,111.37
2019-03-30T20:24:24.259Z,112.57
2019-03-30T20:26:52.707Z,117.08
2019-03-30T20:29:25.522Z,123.20
2019-03-30T20:31:51.314Z,125.92
2019-03-30T20:34:19.767Z,117.80
2019-03-30T20:36:48.226Z,114.12
2019-03-30T20:39:16.659Z,116.60
2019-03-30T20:41:46.167Z,123.22
2019-03-30T20:44:14.618Z,105.43
2019-03-30T20:46:43.795Z,113.80
2019-03-30T20:49:12.379Z,106.97
2019-03-30T20:51:40.827Z,112.50
2019-03-30T20:54:11.929Z,114.47
2019-03-30T20:56:40.375Z,113.62
2019-03-30T20:59:08.838Z,114.62
2019-03-30T21:01:38.516Z,117.25
2019-03-30T21:04:07.220Z,119.00
2019-03-30T21:06:35.722Z,127.20
2019-03-30T21:09:06.487Z,121.40
2019-03-30T21:11:34.923Z,122.37
2019-03-30T21:14:03.435Z,126.92
2019-03-30T21:16:31.884Z,122.07
2019-03-30T21:19:00.341Z,118.57
2019-03-30T21:21:30.331Z,138.32
2019-03-30T21:23:59.613Z,125.95
2019-03-30T21:26:28.792Z,123.25
2019-03-30T21:28:57.373Z,134.63
2019-03-30T21:31:25.839Z,129.87
2019-03-30T21:33:54.286Z,135.43
2019-03-30T21:36:22.734Z,132.27
2019-03-30T21:38:52.720Z,119.37
2019-03-30T21:41:21.167Z,121.10
2019-03-30T21:43:49.619Z,129.80
2019-03-30T21:46:18.054Z,117.72
2019-03-30T21:48:46.505Z,127.02
2019-03-30T21:51:14.945Z,114.67
2019-03-30T21:53:48.086Z,122.42
2019-03-30T21:56:19.327Z,132.70
2019-03-30T21:58:47.762Z,115.85
2019-03-30T22:01:17.746Z,117.33
2019-03-30T22:03:46.202Z,130.43
2019-03-30T22:06:14.724Z,131.20
2019-03-30T22:08:43.838Z,126.87
2019-03-30T22:11:12.353Z,116.22
2019-03-30T22:13:42.466Z,127.30
2019-03-30T22:16:10.902Z,110.85
2019-03-30T22:18:39.351Z,122.07
2019-03-30T22:21:10.367Z,126.02
2019-03-30T22:23:38.815Z,102.80
2019-03-30T22:26:07.254Z,128.32
2019-03-30T22:28:35.699Z,113.72
2019-03-30T22:31:04.340Z,132.70
2019-03-30T22:33:32.848Z,125.80
2019-03-30T22:36:01.306Z,109.40
2019-03-30T22:38:29.824Z,105.70
2019-03-30T22:40:58.291Z,114.28
2019-03-30T22:43:26.722Z,100.15
2019-03-30T22:45:55.158Z,81.97
2019-03-30T22:48:23.643Z,89.05
2019-03-30T22:50:52.087Z,91.47
2019-03-30T22:53:20.535Z,98.12
2019-03-30T22:55:49.063Z,106.85
2019-03-30T22:58:17.540Z,98.05
2019-03-30T23:00:59.488Z,100.33
2019-03-30T23:03:28.935Z,100.80
2019-03-30T23:05:57.393Z,103.62
2019-03-30T23:08:25.825Z,116.33
2019-03-30T23:10:54.271Z,108.05
2019-03-30T23:13:22.712Z,66.97
2019-03-30T23:15:52.134Z,58.52
2019-03-30T23:18:20.570Z,65.47
2019-03-30T23:20:49.846Z,97.75
2019-03-30T23:23:22.605Z,108.85
2019-03-30T23:25:51.042Z,118.22
2019-03-30T23:28:19.499Z,119.47
2019-03-30T23:30:54.411Z,158.70
2019-03-30T23:33:18.288Z,128.30
2019-03-30T23:35:46.737Z,129.30
2019-03-30T23:38:15.185Z,128.60
2019-03-30T23:40:43.621Z,121.30
2019-03-30T23:43:12.156Z,124.22
2019-03-30T23:45:40.595Z,121.45
2019-03-30T23:48:09.051Z,111.90
2019-03-30T23:50:37.486Z,109.55
2019-03-30T23:53:07.533Z,121.33
2019-03-30T23:55:36.266Z,113.45
2019-03-30T23:58:04.778Z,113.68
